Time;durP1;ratioP1;P1;durP2;ratioP2;P2;SDS_P1;SDS_P2;PMS_P1;PMS_P2;Temp;Humidity;BMP_temperature;BMP_pressure;BME280_temperature;BME280_humidity;BME280_pressure;Samples;Min_cycle;Max_cycle;Signal;HPM_P1;HPM_P2
2024/03/22 00:10:18;;;;;;;45.40;6.93;;;;;;;9.51;100.00;100872.16;4696607;30;20157;-92
2024/03/22 00:12:52;;;;;;;48.47;8.85;;;;;;;9.43;100.00;100864.03;4744361;30;20040;-93
2024/03/22 00:16:16;;;;;;;47.17;7.90;;;;;;;9.48;100.00;100874.19;4702493;30;20174;-93
2024/03/22 00:18:42;;;;;;;42.47;7.22;;;;;;;9.41;100.00;100866.78;4726256;30;20227;-92
2024/03/22 00:21:11;;;;;;;41.53;7.10;;;;;;;9.47;100.00;100865.47;4790506;29;20077;-91
2024/03/22 00:28:37;;;;;;;43.33;7.25;;;;;;;9.45;100.00;100863.91;4782523;29;20093;-92
2024/03/22 00:31:38;;;;;;;53.60;7.35;;;;;;;9.48;100.00;100866.28;4765779;29;20042;-93
2024/03/22 00:34:28;;;;;;;38.50;6.65;;;;;;;9.47;100.00;100868.09;4778144;29;20045;-92
2024/03/22 00:37:25;;;;;;;51.33;7.18;;;;;;;9.49;100.00;100857.44;4787096;29;20478;-92
2024/03/22 00:39:50;;;;;;;;;;;;;;;9.45;100.00;100859.47;4754612;29;20039;-92
2024/03/22 00:42:16;;;;;;;51.03;8.27;;;;;;;9.41;100.00;100853.59;4772707;29;20412;-92
2024/03/22 00:44:42;;;;;;;59.08;8.20;;;;;;;9.44;100.00;100868.38;4771620;29;20069;-91
2024/03/22 00:47:12;;;;;;;52.47;6.82;;;;;;;9.37;100.00;100849.56;4781467;29;20533;-93
2024/03/22 00:49:38;;;;;;;50.90;8.98;;;;;;;9.35;100.00;100853.28;4756990;29;20066;-92
2024/03/22 00:52:55;;;;;;;55.72;8.10;;;;;;;9.36;100.00;100847.03;4767072;29;20047;-92
2024/03/22 00:55:43;;;;;;;;;;;;;;;9.26;100.00;100842.53;4764712;29;20517;-92
2024/03/22 00:58:12;;;;;;;46.03;6.45;;;;;;;9.19;100.00;100849.25;4780114;29;19917;-91
2024/03/22 01:01:25;;;;;;;42.15;5.78;;;;;;;9.22;100.00;100837.63;4782598;29;20042;-92
2024/03/22 01:04:16;;;;;;;50.42;7.75;;;;;;;9.19;100.00;100838.69;4784852;29;20510;-93
2024/03/22 01:06:45;;;;;;;37.08;6.50;;;;;;;9.17;100.00;100840.66;4779209;29;20083;-93
2024/03/22 01:09:19;;;;;;;53.00;6.30;;;;;;;9.18;100.00;100843.16;4791507;29;20057;-91
2024/03/22 01:12:00;;;;;;;37.10;6.40;;;;;;;9.08;100.00;100842.22;4813288;29;20054;-90
2024/03/22 01:14:44;;;;;;;46.70;7.53;;;;;;;9.08;100.00;100852.75;4777111;29;20047;-93
2024/03/22 01:17:10;;;;;;;47.83;6.90;;;;;;;9.04;100.00;100859.25;4801030;29;20069;-91
2024/03/22 01:19:36;;;;;;;47.13;6.72;;;;;;;9.01;100.00;100852.44;4780687;29;20080;-92
2024/03/22 01:23:00;;;;;;;47.10;6.90;;;;;;;9.03;100.00;100853.13;4776106;29;20070;-92
2024/03/22 01:25:42;;;;;;;52.58;7.32;;;;;;;9.02;100.00;100856.75;4817767;29;20042;-93
2024/03/22 01:32:04;;;;;;;42.83;7.95;;;;;;;8.89;100.00;100863.94;4752406;30;20100;-91
2024/03/22 01:34:30;;;;;;;50.33;7.28;;;;;;;8.84;100.00;100861.69;4755143;30;20139;-92
2024/03/22 01:36:59;;;;;;;47.58;5.35;;;;;;;8.85;100.00;100858.09;4723457;30;20059;-92
2024/03/22 01:39:37;;;;;;;36.88;5.57;;;;;;;8.70;100.00;100849.59;4737826;30;20115;-91
2024/03/22 01:42:06;;;;;;;45.63;7.18;;;;;;;8.67;100.00;100849.84;4752168;30;20119;-91
2024/03/22 01:44:46;;;;;;;42.40;6.72;;;;;;;8.65;100.00;100854.41;4707715;30;20031;-91
2024/03/22 01:48:04;;;;;;;52.00;6.75;;;;;;;8.66;100.00;100858.72;4731122;30;20098;-91
2024/03/22 01:51:13;;;;;;;46.45;7.80;;;;;;;8.62;100.00;100842.31;4742864;30;20052;-93
2024/03/22 01:54:22;;;;;;;52.35;7.78;;;;;;;8.57;100.00;100849.75;4789082;29;20124;-92
2024/03/22 01:57:27;;;;;;;40.00;6.30;;;;;;;8.61;100.00;100856.47;4823835;29;20493;-93
2024/03/22 01:59:55;;;;;;;51.72;7.82;;;;;;;8.58;100.00;100861.97;4809099;29;20048;-93
2024/03/22 02:02:38;;;;;;;41.33;7.63;;;;;;;8.61;100.00;100866.16;4781915;29;20050;-91
2024/03/22 02:08:57;;;;;;;52.42;7.55;;;;;;;8.60;100.00;100864.50;4803472;29;20046;-92
2024/03/22 02:11:23;;;;;;;44.22;6.20;;;;;;;8.60;100.00;100867.94;4769064;29;20039;-92
2024/03/22 02:22:39;;;;;;;34.28;5.75;;;;;;;8.48;100.00;100853.91;4788719;29;20054;-92
2024/03/22 02:25:57;;;;;;;42.92;8.55;;;;;;;8.43;100.00;100859.53;4766785;29;20072;-92
2024/03/22 02:29:04;;;;;;;46.67;5.80;;;;;;;8.30;100.00;100864.94;4793613;29;20050;-92
2024/03/22 02:31:32;;;;;;;40.20;5.95;;;;;;;8.27;100.00;100852.00;4767862;29;20043;-91
2024/03/22 02:34:40;;;;;;;35.08;6.28;;;;;;;8.29;100.00;100844.81;4770617;29;20059;-92
2024/03/22 02:37:10;;;;;;;39.65;5.68;;;;;;;8.21;100.00;100854.25;4756554;29;20043;-93
2024/03/22 02:39:42;;;;;;;35.13;7.57;;;;;;;8.15;100.00;100851.16;4789035;29;20046;-93
2024/03/22 02:42:20;;;;;;;53.95;6.60;;;;;;;8.08;100.00;100849.94;4776123;29;20113;-93
2024/03/22 02:44:48;;;;;;;40.75;5.38;;;;;;;8.09;100.00;100861.31;4772387;29;20459;-92
2024/03/22 02:47:21;;;;;;;42.35;7.47;;;;;;;8.05;100.00;100855.44;4785705;29;20047;-93
2024/03/22 02:49:51;;;;;;;39.20;5.55;;;;;;;7.99;100.00;100855.91;4787921;29;20039;-91
2024/03/22 02:52:48;;;;;;;33.22;5.43;;;;;;;8.06;100.00;100857.97;4790181;29;20116;-92
2024/03/22 02:55:24;;;;;;;;;;;;;;;;;;;;;
2024/03/22 02:57:54;;;;;;;38.20;4.80;;;;;;;7.96;100.00;100859.63;4778243;29;20131;-92
2024/03/22 03:00:55;;;;;;;44.33;5.38;;;;;;;8.01;100.00;100860.09;4794122;29;20584;-92
2024/03/22 03:03:20;;;;;;;39.90;7.15;;;;;;;8.01;100.00;100861.91;4792872;29;20684;-92
2024/03/22 03:05:56;;;;;;;42.20;5.97;;;;;;;8.05;100.00;100861.56;4748230;29;20050;-93
2024/03/22 03:08:32;;;;;;;37.10;6.37;;;;;;;7.95;100.00;100855.31;4775788;29;20638;-93
2024/03/22 03:11:01;;;;;;;34.28;5.30;;;;;;;7.98;100.00;100857.69;4794296;29;20047;-92
2024/03/22 03:13:43;;;;;;;32.60;5.68;;;;;;;8.00;100.00;100857.59;4803836;29;20490;-92
2024/03/22 03:16:09;;;;;;;39.30;6.32;;;;;;;7.96;100.00;100853.53;4764531;29;20069;-92
2024/03/22 03:18:35;;;;;;;40.65;5.78;;;;;;;7.97;100.00;100858.66;4802452;29;20079;-92
2024/03/22 03:21:01;;;;;;;49.40;6.55;;;;;;;7.99;100.00;100859.41;4786907;29;20047;-93
2024/03/22 03:23:30;;;;;;;33.28;5.15;;;;;;;8.01;100.00;100864.53;4807283;29;20040;-93
2024/03/22 03:25:56;;;;;;;42.90;6.57;;;;;;;7.88;100.00;100854.97;4792597;29;20103;-93
2024/03/22 03:28:22;;;;;;;34.42;6.03;;;;;;;7.92;100.00;100864.28;4791658;29;20038;-92
2024/03/22 03:31:10;;;;;;;41.42;5.85;;;;;;;7.87;100.00;100853.25;4792170;29;20075;-93
2024/03/22 03:33:36;;;;;;;34.00;5.68;;;;;;;7.81;100.00;100864.25;4803606;29;20039;-93
2024/03/22 03:36:05;;;;;;;32.78;5.00;;;;;;;7.83;100.00;100865.00;4809958;29;20033;-93
2024/03/22 03:39:06;;;;;;;42.60;5.47;;;;;;;7.78;100.00;100856.59;4787916;29;20046;-93
2024/03/22 03:41:35;;;;;;;46.28;6.35;;;;;;;7.82;100.00;100871.19;4774154;29;20125;-93
2024/03/22 03:44:04;;;;;;;49.90;7.25;;;;;;;7.75;100.00;100875.25;4793902;29;20041;-93
2024/03/22 03:46:48;;;;;;;41.22;6.28;;;;;;;7.78;100.00;100867.13;4809443;29;20089;-92
2024/03/22 03:49:14;;;;;;;48.05;7.13;;;;;;;7.62;100.00;100864.78;4802465;29;20272;-92
2024/03/22 03:51:40;;;;;;;37.50;5.18;;;;;;;7.64;100.00;100868.16;4809825;29;20490;-92
2024/03/22 03:54:09;;;;;;;39.78;5.40;;;;;;;7.65;100.00;100870.66;4788903;29;20034;-93
2024/03/22 03:56:36;;;;;;;40.08;5.55;;;;;;;7.53;100.00;100861.06;4793342;29;20090;-93
2024/03/22 03:59:07;;;;;;;38.28;5.53;;;;;;;7.56;100.00;100859.03;4802617;29;20077;-93
2024/03/22 04:01:35;;;;;;;37.30;6.30;;;;;;;7.43;100.00;100868.78;4792758;29;20043;-93
2024/03/22 04:08:23;;;;;;;;;;;;;;;7.28;100.00;100855.81;4819518;29;20041;-93
2024/03/22 04:10:56;;;;;;;49.58;5.35;;;;;;;7.27;100.00;100866.44;4771525;29;19947;-92
2024/03/22 04:13:27;;;;;;;29.63;5.53;;;;;;;7.24;100.00;100864.88;4781129;29;20146;-90
2024/03/22 04:16:00;;;;;;;35.10;5.75;;;;;;;7.15;100.00;100863.75;4788719;29;20582;-91
2024/03/22 04:18:43;;;;;;;31.52;5.43;;;;;;;7.14;100.00;100862.09;4774419;29;20107;-92
2024/03/22 04:21:09;;;;;;;37.97;5.53;;;;;;;7.04;100.00;100863.72;4775063;29;20410;-93
2024/03/22 04:23:40;;;;;;;39.33;5.15;;;;;;;7.04;100.00;100859.28;4772703;29;20043;-93
2024/03/22 04:26:06;;;;;;;31.70;5.55;;;;;;;7.00;100.00;100868.34;4771316;29;20050;-92
2024/03/22 04:29:03;;;;;;;37.38;4.53;;;;;;;7.02;100.00;100879.59;4774306;29;20074;-91
2024/03/22 04:31:38;;;;;;;30.70;4.43;;;;;;;6.95;100.00;100881.81;4774775;30;20047;-93
2024/03/22 04:34:12;;;;;;;38.63;4.57;;;;;;;6.97;100.00;100886.97;4787142;29;20125;-93
2024/03/22 04:36:41;;;;;;;32.70;4.57;;;;;;;6.99;100.00;100892.94;4770174;29;20042;-92
2024/03/22 04:39:12;;;;;;;33.80;5.38;;;;;;;6.94;100.00;100890.63;4771433;29;20038;-93
2024/03/22 04:41:48;;;;;;;33.20;4.53;;;;;;;6.92;100.00;100896.97;4777166;29;20049;-94
2024/03/22 04:44:14;;;;;;;30.60;4.53;;;;;;;6.92;100.00;100900.44;4772179;29;20043;-92
2024/03/22 04:46:43;;;;;;;38.35;5.93;;;;;;;6.85;100.00;100886.03;4789286;29;20581;-93
2024/03/22 04:49:17;;;;;;;25.67;4.53;;;;;;;6.87;100.00;100881.53;4778845;29;20069;-93
2024/03/22 04:51:43;;;;;;;32.60;5.78;;;;;;;6.82;100.00;100892.34;4777043;29;20046;-93
2024/03/22 04:54:18;;;;;;;34.20;5.20;;;;;;;6.85;100.00;100877.34;4805243;29;20112;-92
2024/03/22 04:56:47;;;;;;;35.35;5.25;;;;;;;6.87;100.00;100884.16;4806769;29;20457;-93
2024/03/22 04:59:31;;;;;;;34.10;4.85;;;;;;;6.78;100.00;100895.31;4793341;29;20047;-92
2024/03/22 05:02:17;;;;;;;;;;;;;;;6.76;100.00;100884.91;4786012;29;20042;-93
2024/03/22 05:04:44;;;;;;;41.83;5.30;;;;;;;6.72;100.00;100882.63;4806910;29;20004;-92
2024/03/22 05:07:10;;;;;;;32.22;4.38;;;;;;;6.65;100.00;100888.31;4778532;29;20130;-92
2024/03/22 05:09:36;;;;;;;32.00;5.35;;;;;;;6.68;100.00;100893.34;4784086;29;20046;-93
2024/03/22 05:12:08;;;;;;;31.48;6.10;;;;;;;6.68;100.00;100892.47;4831065;29;20074;-94
2024/03/22 05:14:33;;;;;;;28.75;4.00;;;;;;;6.66;100.00;100894.38;4794893;29;20473;-92
2024/03/22 05:17:02;;;;;;;23.73;4.32;;;;;;;6.64;100.00;100893.66;4797661;29;20129;-93
2024/03/22 05:19:29;;;;;;;32.33;4.20;;;;;;;6.64;100.00;100905.00;4793290;29;20050;-93
2024/03/22 05:22:00;;;;;;;23.95;3.88;;;;;;;6.63;100.00;100899.84;4801641;29;20049;-92
2024/03/22 05:24:27;;;;;;;26.23;4.85;;;;;;;6.69;100.00;100908.13;4788849;29;20042;-92
2024/03/22 05:26:53;;;;;;;27.50;4.18;;;;;;;6.68;100.00;100903.00;4806017;29;20046;-94
2024/03/22 05:29:19;;;;;;;29.35;4.72;;;;;;;6.62;100.00;100904.28;4811732;29;20128;-93
2024/03/22 05:31:48;;;;;;;36.67;4.70;;;;;;;6.63;100.00;100903.31;4783760;29;20051;-92
2024/03/22 05:34:15;;;;;;;32.45;6.03;;;;;;;6.60;100.00;100900.06;4794901;29;20038;-93
2024/03/22 05:36:41;;;;;;;35.25;4.30;;;;;;;6.56;100.00;100892.41;4781381;29;20050;-93
2024/03/22 05:39:08;;;;;;;35.67;5.13;;;;;;;6.55;100.00;100903.84;4776987;29;20046;-93
2024/03/22 05:41:34;;;;;;;33.80;4.45;;;;;;;6.48;100.00;100897.34;4804631;29;20043;-93
2024/03/22 05:44:00;;;;;;;28.00;4.45;;;;;;;6.50;100.00;100913.81;4792510;29;20045;-93
2024/03/22 05:46:26;;;;;;;29.65;4.95;;;;;;;6.46;100.00;100904.50;4790790;29;20035;-93
2024/03/22 05:48:52;;;;;;;31.58;4.45;;;;;;;6.45;100.00;100897.53;4791851;29;20030;-93
2024/03/22 05:51:18;;;;;;;24.55;5.13;;;;;;;6.42;100.00;100889.88;4785936;29;20110;-94
2024/03/22 05:53:45;;;;;;;27.23;4.60;;;;;;;6.36;100.00;100896.41;4764012;30;20050;-93
2024/03/22 05:56:10;;;;;;;35.75;4.80;;;;;;;6.31;100.00;100901.97;4807301;29;20046;-94
2024/03/22 05:58:36;;;;;;;26.92;4.68;;;;;;;6.32;100.00;100908.91;4770296;29;20498;-93
2024/03/22 06:01:03;;;;;;;38.17;4.43;;;;;;;6.29;100.00;100909.09;4776842;29;20038;-93
2024/03/22 06:03:30;;;;;;;34.78;5.20;;;;;;;6.31;100.00;100915.09;4791578;29;20038;-93
2024/03/22 06:06:04;;;;;;;32.75;4.53;;;;;;;6.26;100.00;100911.94;4811123;29;20419;-93
2024/03/22 06:08:41;;;;;;;32.87;4.20;;;;;;;6.26;100.00;100911.13;4774799;29;20517;-93
2024/03/22 06:11:07;;;;;;;34.05;5.00;;;;;;;6.32;100.00;100915.94;4809569;29;20148;-93
2024/03/22 06:13:34;;;;;;;23.27;3.40;;;;;;;6.36;100.00;100914.78;4816526;29;20038;-93
2024/03/22 06:16:00;;;;;;;32.55;4.30;;;;;;;6.45;100.00;100918.56;4800735;29;20046;-93
2024/03/22 06:18:26;;;;;;;26.73;4.65;;;;;;;6.44;100.00;100909.00;4776205;29;20035;-93
2024/03/22 06:20:54;;;;;;;21.73;3.88;;;;;;;6.46;100.00;100909.75;4788316;29;20030;-93
2024/03/22 06:23:21;;;;;;;35.25;5.15;;;;;;;6.46;100.00;100907.13;4800147;29;20038;-93
2024/03/22 06:25:52;;;;;;;33.03;4.18;;;;;;;6.47;100.00;100906.16;4794873;29;20156;-93
2024/03/22 06:28:18;;;;;;;29.10;4.43;;;;;;;6.40;100.00;100911.00;4801245;29;20042;-91
2024/03/22 06:30:44;;;;;;;31.23;4.43;;;;;;;6.39;100.00;100916.34;4772053;29;20609;-93
2024/03/22 06:33:11;;;;;;;27.02;4.45;;;;;;;6.31;100.00;100903.75;4803744;29;20038;-93
2024/03/22 06:35:37;;;;;;;25.77;4.60;;;;;;;6.29;100.00;100916.16;4814585;29;20102;-93
2024/03/22 06:38:04;;;;;;;27.08;3.58;;;;;;;6.28;100.00;100920.56;4797666;29;20129;-93
2024/03/22 06:40:30;;;;;;;36.42;5.50;;;;;;;6.24;100.00;100913.84;4801662;29;20045;-93
2024/03/22 06:42:56;;;;;;;24.15;3.60;;;;;;;6.26;100.00;100929.50;4808198;29;20512;-94
2024/03/22 06:45:22;;;;;;;30.17;3.63;;;;;;;6.21;100.00;100929.81;4792916;29;20047;-92
2024/03/22 06:47:51;;;;;;;26.40;3.55;;;;;;;6.21;100.00;100927.19;4791786;29;20096;-93
2024/03/22 06:50:17;;;;;;;27.85;3.83;;;;;;;6.14;100.00;100923.28;4784700;29;20124;-93
2024/03/22 06:52:44;;;;;;;34.85;5.13;;;;;;;6.18;100.00;100941.34;4783479;29;20047;-93
2024/03/22 06:55:10;;;;;;;23.88;3.92;;;;;;;6.21;100.00;100940.31;4808175;29;20525;-93
2024/03/22 06:57:41;;;;;;;26.58;3.83;;;;;;;6.25;100.00;100941.78;4796766;29;20043;-94
2024/03/22 07:00:10;;;;;;;22.73;4.57;;;;;;;6.27;100.00;100958.28;4799921;29;20140;-94
2024/03/22 07:02:36;;;;;;;24.98;3.40;;;;;;;6.36;100.00;100958.56;4777799;29;20051;-93
2024/03/22 07:05:03;;;;;;;30.05;4.60;;;;;;;6.40;100.00;100954.81;4796527;29;20042;-92
2024/03/22 07:07:32;;;;;;;32.58;4.28;;;;;;;6.56;100.00;100955.44;4797264;29;20047;-94
2024/03/22 07:10:03;;;;;;;22.75;4.05;;;;;;;6.68;100.00;100955.53;4787717;29;20062;-93
2024/03/22 07:12:29;;;;;;;23.73;3.97;;;;;;;6.78;100.00;100958.38;4787585;29;20078;-92
2024/03/22 07:14:56;;;;;;;24.73;3.85;;;;;;;6.87;100.00;100962.13;4792402;29;20038;-93
2024/03/22 07:17:24;;;;;;;30.27;4.78;;;;;;;6.98;100.00;100959.59;4785982;29;20038;-93
2024/03/22 07:19:53;;;;;;;23.60;3.80;;;;;;;7.12;100.00;100957.78;4777104;29;20120;-93
2024/03/22 07:22:20;;;;;;;26.50;5.13;;;;;;;7.17;100.00;100967.03;4783870;29;20725;-92
2024/03/22 07:24:51;;;;;;;25.38;3.38;;;;;;;7.32;100.00;100965.09;4774593;29;20031;-92
2024/03/22 07:27:19;;;;;;;27.20;4.25;;;;;;;7.48;100.00;100973.66;4814535;29;20068;-92
2024/03/22 07:29:45;;;;;;;22.02;3.85;;;;;;;7.60;100.00;100966.69;4790391;29;20045;-93
2024/03/22 07:32:11;;;;;;;19.10;3.10;;;;;;;7.73;100.00;100962.19;4788787;29;20541;-94
2024/03/22 07:34:40;;;;;;;22.27;4.13;;;;;;;7.80;100.00;100960.78;4786941;29;20046;-92
2024/03/22 07:37:07;;;;;;;27.15;4.10;;;;;;;7.88;100.00;100975.19;4804903;29;20137;-94
2024/03/22 07:39:33;;;;;;;19.55;2.95;;;;;;;7.93;100.00;100981.78;4789760;29;20046;-94
2024/03/22 07:41:59;;;;;;;28.17;3.33;;;;;;;7.93;100.00;100976.50;4795540;29;20057;-92
2024/03/22 07:44:26;;;;;;;24.55;3.30;;;;;;;8.06;100.00;100988.75;4789925;29;20039;-94
2024/03/22 07:46:52;;;;;;;19.83;3.97;;;;;;;8.11;100.00;100984.00;4796223;29;21739;-94
2024/03/22 07:49:18;;;;;;;13.63;2.65;;;;;;;8.11;100.00;100972.59;4788481;29;20053;-92
2024/03/22 07:51:44;;;;;;;22.00;3.47;;;;;;;8.15;100.00;100968.81;4791829;29;20134;-94
2024/03/22 07:54:10;;;;;;;23.23;3.40;;;;;;;8.17;100.00;100973.00;4808031;29;20480;-93
2024/03/22 07:56:36;;;;;;;15.80;2.85;;;;;;;8.22;100.00;100977.09;4800320;29;20467;-93
2024/03/22 07:59:02;;;;;;;13.77;2.42;;;;;;;8.26;100.00;100978.53;4799858;29;20049;-94
2024/03/22 08:01:28;;;;;;;13.00;3.03;;;;;;;8.23;100.00;100981.41;4774645;29;20042;-93
2024/03/22 08:03:54;;;;;;;21.98;3.08;;;;;;;8.23;100.00;100981.41;4791784;29;20027;-91
2024/03/22 08:06:21;;;;;;;18.00;3.08;;;;;;;8.24;100.00;100977.78;4835824;29;20296;-93
2024/03/22 08:08:47;;;;;;;17.52;2.72;;;;;;;8.23;100.00;100966.44;4783323;29;20043;-93
2024/03/22 08:11:13;;;;;;;17.00;3.72;;;;;;;8.24;100.00;100976.00;4770780;30;20054;-93
2024/03/22 08:13:39;;;;;;;19.08;3.30;;;;;;;8.26;100.00;100974.13;4788063;29;20035;-93
2024/03/22 08:16:05;;;;;;;18.25;3.35;;;;;;;8.25;100.00;100979.50;4771288;30;20047;-92
2024/03/22 08:18:35;;;;;;;16.75;2.38;;;;;;;8.28;100.00;100987.16;4774344;29;20093;-91
2024/03/22 08:21:02;;;;;;;23.58;2.55;;;;;;;8.23;100.00;100987.50;4772642;29;20338;-93
2024/03/22 08:23:28;;;;;;;13.45;2.72;;;;;;;8.26;100.00;100982.00;4775841;29;20115;-90
2024/03/22 08:25:54;;;;;;;21.40;2.90;;;;;;;8.27;100.00;100991.59;4775475;30;20624;-92
2024/03/22 08:28:20;;;;;;;32.40;4.00;;;;;;;8.27;100.00;100986.31;4769399;29;20066;-91
2024/03/22 08:30:46;;;;;;;17.92;3.08;;;;;;;8.32;100.00;100994.72;4786627;29;20031;-91
2024/03/22 08:33:12;;;;;;;10.88;1.90;;;;;;;8.42;100.00;100996.66;4771518;29;20390;-93
2024/03/22 08:35:41;;;;;;;24.73;4.38;;;;;;;8.54;100.00;100994.88;4759754;29;20049;-93
2024/03/22 08:38:09;;;;;;;20.58;2.72;;;;;;;8.49;100.00;100986.50;4794646;29;20047;-93
2024/03/22 08:40:38;;;;;;;16.95;3.10;;;;;;;8.59;100.00;100986.63;4774999;29;20047;-92
2024/03/22 08:43:07;;;;;;;26.33;3.42;;;;;;;8.61;100.00;100987.38;4768567;29;20043;-92
2024/03/22 08:45:33;;;;;;;20.08;2.85;;;;;;;8.58;100.00;100992.88;4786970;29;20050;-92
2024/03/22 08:48:00;;;;;;;21.83;2.90;;;;;;;8.58;100.00;100985.81;4782293;29;20046;-93
2024/03/22 08:50:29;;;;;;;29.88;3.40;;;;;;;8.67;100.00;100978.97;4778767;29;20041;-93
2024/03/22 08:52:55;;;;;;;23.65;3.30;;;;;;;8.75;100.00;100984.50;4758935;29;20034;-90
2024/03/22 08:55:21;;;;;;;21.83;3.45;;;;;;;8.74;100.00;100982.84;4763975;30;20048;-92
2024/03/22 08:57:47;;;;;;;23.15;3.50;;;;;;;8.72;100.00;100971.56;4771544;29;20043;-92
2024/03/22 09:00:13;;;;;;;20.42;3.75;;;;;;;8.68;100.00;100976.22;4765882;29;20038;-90
2024/03/22 09:02:39;;;;;;;23.75;2.95;;;;;;;8.72;100.00;100973.34;4776191;29;20080;-89
2024/03/22 09:05:05;;;;;;;22.85;3.58;;;;;;;8.75;100.00;100976.59;4782751;29;20043;-92
2024/03/22 09:07:31;;;;;;;26.55;3.75;;;;;;;8.75;100.00;100975.75;4783629;29;20410;-92
2024/03/22 09:09:57;;;;;;;22.58;3.80;;;;;;;8.79;100.00;100983.31;4783568;29;20039;-93
2024/03/22 09:12:23;;;;;;;21.27;3.15;;;;;;;8.81;100.00;100984.03;4765880;29;20824;-93
2024/03/22 09:14:49;;;;;;;18.98;2.55;;;;;;;8.83;100.00;100986.56;4761662;29;20030;-90
2024/03/22 09:17:14;;;;;;;24.27;3.83;;;;;;;8.77;100.00;100974.69;4756598;30;20063;-91
2024/03/22 09:19:41;;;;;;;17.83;3.33;;;;;;;8.76;100.00;100975.63;4789972;29;20042;-87
2024/03/22 09:22:06;;;;;;;25.25;3.47;;;;;;;8.84;100.00;100977.66;4756479;30;20039;-89
2024/03/22 09:24:32;;;;;;;24.45;4.13;;;;;;;8.88;100.00;100978.28;4777920;29;20031;-91
2024/03/22 09:26:58;;;;;;;20.90;3.50;;;;;;;8.86;100.00;100981.03;4782929;29;20035;-87
2024/03/22 09:29:24;;;;;;;28.23;5.32;;;;;;;8.78;100.00;100976.38;4763301;29;20104;-89
2024/03/22 09:31:53;;;;;;;24.35;3.47;;;;;;;8.81;100.00;100972.63;4758384;29;20046;-91
2024/03/22 09:34:19;;;;;;;19.05;3.05;;;;;;;8.84;100.00;100963.66;4763819;29;20035;-90
2024/03/22 09:36:45;;;;;;;24.92;3.78;;;;;;;9.02;100.00;100969.28;4786136;29;20057;-95
2024/03/22 09:39:12;;;;;;;23.95;3.90;;;;;;;9.02;100.00;100969.28;4766639;29;20050;-90
2024/03/22 09:41:44;;;;;;;15.07;2.72;;;;;;;9.14;100.00;100970.13;4806357;29;20043;-89
2024/03/22 09:44:20;;;;;;;16.77;2.97;;;;;;;9.15;100.00;100970.00;4771417;29;20047;-89
2024/03/22 09:46:56;;;;;;;14.80;2.75;;;;;;;9.13;100.00;100977.19;4771664;29;20058;-90
2024/03/22 09:49:23;;;;;;;17.42;2.80;;;;;;;9.11;100.00;100973.00;4760313;29;20035;-89
2024/03/22 09:51:51;;;;;;;25.02;4.07;;;;;;;9.14;100.00;100978.84;4794162;29;20053;-92
2024/03/22 09:54:17;;;;;;;19.10;3.92;;;;;;;9.10;100.00;100971.31;4759065;29;20047;-88
2024/03/22 09:56:47;;;;;;;16.63;2.88;;;;;;;9.21;100.00;100973.09;4760624;29;20479;-93
2024/03/22 09:59:17;;;;;;;22.00;3.65;;;;;;;9.18;100.00;100976.81;4759529;29;20075;-90
2024/03/22 10:01:44;;;;;;;23.13;3.95;;;;;;;9.14;100.00;100975.41;4760171;29;20030;-91
2024/03/22 10:04:10;;;;;;;17.95;2.70;;;;;;;9.12;100.00;100974.66;4769705;29;20027;-91
2024/03/22 10:06:36;;;;;;;24.17;3.20;;;;;;;9.15;100.00;100984.97;4762529;29;20111;-89
2024/03/22 10:09:52;;;;;;;15.00;3.45;;;;;;;9.22;100.00;100985.34;4773609;29;20203;-91
2024/03/22 10:12:32;;;;;;;24.02;3.13;;;;;;;9.25;100.00;100990.38;4784332;29;20043;-95
2024/03/22 10:14:58;;;;;;;14.32;2.30;;;;;;;9.22;100.00;100996.69;4790166;29;20034;-91
2024/03/22 10:17:26;;;;;;;17.27;2.70;;;;;;;9.22;100.00;100985.34;4809063;29;20050;-93
2024/03/22 10:19:58;;;;;;;10.07;2.10;;;;;;;9.25;100.00;100977.19;4800719;29;20505;-92
2024/03/22 10:22:25;;;;;;;16.70;2.95;;;;;;;9.24;100.00;100978.97;4788213;29;20110;-92
2024/03/22 10:24:52;;;;;;;21.70;2.92;;;;;;;9.29;100.00;100974.16;4776666;29;20129;-92
2024/03/22 10:27:19;;;;;;;16.67;2.70;;;;;;;9.42;100.00;100968.75;4766675;29;20051;-91
2024/03/22 10:29:47;;;;;;;16.92;3.03;;;;;;;9.49;100.00;100976.16;4788321;29;20034;-93
2024/03/22 10:32:15;;;;;;;20.13;3.58;;;;;;;9.52;100.00;100971.47;4791802;29;20046;-91
2024/03/22 10:34:42;;;;;;;15.43;1.83;;;;;;;9.50;100.00;100981.31;4778115;29;20087;-92
2024/03/22 10:37:12;;;;;;;18.27;2.92;;;;;;;9.62;100.00;100965.47;4776096;29;20042;-92
2024/03/22 10:39:39;;;;;;;19.77;2.88;;;;;;;9.71;100.00;100967.34;4778455;29;20042;-91
2024/03/22 10:42:06;;;;;;;14.23;2.45;;;;;;;9.75;100.00;100967.91;4780764;29;20451;-91
2024/03/22 10:44:37;;;;;;;16.77;3.03;;;;;;;9.76;100.00;100974.88;4786878;29;20035;-89
2024/03/22 10:47:05;;;;;;;17.88;3.45;;;;;;;9.80;100.00;100960.47;4807553;29;20043;-89
2024/03/22 10:49:36;;;;;;;17.65;2.53;;;;;;;9.74;100.00;100955.69;4797219;29;20042;-92
2024/03/22 10:52:04;;;;;;;15.45;2.60;;;;;;;9.86;100.00;100952.03;4820553;29;20481;-93
2024/03/22 10:54:44;;;;;;;17.42;3.63;;;;;;;10.07;100.00;100955.66;4812847;29;20087;-90
2024/03/22 10:57:14;;;;;;;22.83;3.65;;;;;;;10.17;100.00;100954.78;4812604;29;20073;-89
2024/03/22 10:59:41;;;;;;;17.00;2.35;;;;;;;10.22;100.00;100957.03;4807065;29;20045;-89
2024/03/22 11:02:11;;;;;;;9.27;2.33;;;;;;;10.28;100.00;100945.94;4791430;29;20122;-90
2024/03/22 11:04:36;;;;;;;15.05;2.05;;;;;;;10.28;100.00;100947.72;4818119;29;20070;-88
2024/03/22 11:07:03;;;;;;;12.85;2.72;;;;;;;10.34;100.00;100935.78;4799644;29;20103;-94
2024/03/22 11:09:32;;;;;;;13.20;1.80;;;;;;;10.41;100.00;100929.88;4794951;29;20043;-92
2024/03/22 11:12:11;;;;;;;16.95;2.35;;;;;;;10.46;100.00;100928.63;4788863;29;20042;-92
2024/03/22 11:14:37;;;;;;;16.60;2.67;;;;;;;10.51;100.00;100939.69;4803154;29;20054;-91
2024/03/22 11:17:04;;;;;;;14.45;2.60;;;;;;;10.69;100.00;100931.16;4790175;29;20038;-92
2024/03/22 11:19:30;;;;;;;11.80;1.98;;;;;;;10.92;100.00;100934.41;4779324;29;20043;-89
2024/03/22 11:21:56;;;;;;;15.07;2.55;;;;;;;11.03;100.00;100946.69;4756478;29;20061;-90
2024/03/22 11:24:24;;;;;;;7.95;1.23;;;;;;;10.29;100.00;100967.88;4809472;29;20053;-91
2024/03/22 11:26:50;;;;;;;11.20;1.55;;;;;;;9.25;100.00;100985.91;4783591;29;20046;-90
2024/03/22 11:29:16;;;;;;;8.43;1.67;;;;;;;8.54;100.00;100979.06;4788468;29;20065;-93
2024/03/22 11:31:42;;;;;;;11.52;1.75;;;;;;;8.13;100.00;100976.81;4774828;29;20039;-91
2024/03/22 11:34:11;;;;;;;4.18;1.20;;;;;;;7.94;100.00;100983.47;4774132;29;20035;-92
2024/03/22 11:36:37;;;;;;;37.60;24.73;;;;;;;7.94;100.00;100983.47;4757412;30;20074;-92
2024/03/22 11:39:03;;;;;;;14.82;2.42;;;;;;;8.07;100.00;100966.75;4787655;29;20030;-93
2024/03/22 11:41:31;;;;;;;21.23;2.65;;;;;;;8.32;100.00;100963.09;4771145;30;20182;-92
2024/03/22 11:43:59;;;;;;;15.18;1.83;;;;;;;8.53;100.00;100966.84;4786482;29;20027;-89
2024/03/22 11:46:25;;;;;;;16.08;2.22;;;;;;;8.70;100.00;100960.31;4788814;29;20046;-91
2024/03/22 11:48:55;;;;;;;14.77;2.30;;;;;;;8.79;100.00;100958.75;4755756;30;20039;-92
2024/03/22 11:51:22;;;;;;;10.20;1.88;;;;;;;9.03;100.00;100952.53;4755732;29;20095;-92
2024/03/22 11:53:56;;;;;;;13.43;2.47;;;;;;;9.22;100.00;100940.50;4789065;29;20046;-87
2024/03/22 11:56:22;;;;;;;12.77;2.30;;;;;;;9.45;100.00;100949.19;4775147;29;20042;-91
2024/03/22 11:58:49;;;;;;;14.27;2.25;;;;;;;9.52;100.00;100944.25;4774118;29;20038;-90
2024/03/22 12:01:16;;;;;;;12.48;2.22;;;;;;;9.57;100.00;100934.16;4782422;29;20086;-92
2024/03/22 12:03:46;;;;;;;14.90;2.42;;;;;;;9.59;100.00;100918.22;4789334;29;20126;-93
2024/03/22 12:06:14;;;;;;;13.43;1.75;;;;;;;9.68;100.00;100931.47;4772803;30;20054;-90
2024/03/22 12:08:40;;;;;;;15.05;3.20;;;;;;;9.79;100.00;100927.94;4777007;29;20050;-91
2024/03/22 12:11:12;;;;;;;10.80;1.83;;;;;;;9.81;100.00;100906.69;4774972;29;20039;-90
2024/03/22 12:13:38;;;;;;;16.83;2.05;;;;;;;9.66;100.00;100917.56;4788749;29;20107;-91